Time;durP1;ratioP1;P1;durP2;ratioP2;P2;SDS_P1;SDS_P2;PMS_P1;PMS_P2;Temp;Humidity;BMP_temperature;BMP_pressure;BME280_temperature;BME280_humidity;BME280_pressure;Samples;Min_cycle;Max_cycle;Signal;HPM_P1;HPM_P2
2021/12/08 00:01:58;;;;;;;7.13;1.40;;;3.10;99.90;;;3.90;100.00;96375.38;4987989;28;20471;-84
2021/12/08 00:04:26;;;;;;;2.20;1.67;;;3.10;99.90;;;3.84;100.00;96366.59;4986839;28;20467;-83
2021/12/08 00:06:55;;;;;;;2.40;1.50;;;3.00;99.90;;;3.84;100.00;96370.94;4985485;28;20951;-83
2021/12/08 00:09:35;;;;;;;2.80;1.50;;;3.00;99.90;;;3.81;100.00;96372.13;4984521;28;21068;-83
2021/12/08 00:14:51;;;;;;;2.00;1.80;;;3.00;99.90;;;3.83;100.00;96369.34;4984572;28;20478;-83
2021/12/08 00:17:19;;;;;;;5.70;1.53;;;3.00;99.90;;;3.79;100.00;96378.44;4985830;28;21052;-84
2021/12/08 00:19:48;;;;;;;5.20;1.70;;;3.00;99.90;;;3.79;100.00;96383.63;4986963;28;20460;-84
2021/12/08 00:22:17;;;;;;;3.20;1.70;;;3.10;99.90;;;3.80;100.00;96374.88;4985675;28;20982;-84
2021/12/08 00:24:47;;;;;;;2.60;1.70;;;3.10;99.90;;;3.80;100.00;96362.78;4984683;28;20830;-84
2021/12/08 00:27:16;;;;;;;3.30;1.50;;;3.00;99.90;;;3.79;100.00;96355.19;4993024;28;20457;-84
2021/12/08 00:29:45;;;;;;;1.73;1.57;;;3.10;99.90;;;3.80;100.00;96369.72;4990319;28;20486;-84
2021/12/08 00:32:14;;;;;;;5.17;1.73;;;3.00;99.90;;;3.78;100.00;96366.53;4985777;28;20478;-83
2021/12/08 00:34:43;;;;;;;2.73;1.60;;;2.90;99.90;;;3.75;100.00;96361.75;5018546;28;20494;-84
2021/12/08 00:37:12;;;;;;;4.40;2.13;;;3.00;99.90;;;3.75;100.00;96365.09;4982537;28;20522;-84
2021/12/08 00:39:41;;;;;;;4.83;1.93;;;2.90;99.90;;;3.73;100.00;96366.28;4988244;28;20470;-84
2021/12/08 00:42:12;;;;;;;11.93;1.67;;;2.90;99.90;;;3.74;100.00;96367.88;5020521;28;20520;-82
2021/12/08 00:44:40;;;;;;;6.70;1.67;;;2.90;99.90;;;3.75;100.00;96374.66;5007852;28;20500;-84
2021/12/08 00:47:09;;;;;;;3.33;1.70;;;2.90;99.90;;;3.73;100.00;96374.84;5004615;28;20508;-84
2021/12/08 00:49:39;;;;;;;1.97;1.63;;;2.90;99.90;;;3.72;100.00;96375.81;5006318;28;20461;-84
2021/12/08 00:52:09;;;;;;;5.13;1.90;;;2.80;99.90;;;3.73;100.00;96376.63;5008129;28;20514;-83
2021/12/08 00:54:37;;;;;;;4.33;2.00;;;2.80;99.90;;;3.75;100.00;96374.66;5008823;28;20468;-84
2021/12/08 00:57:06;;;;;;;2.40;2.20;;;2.90;99.90;;;3.78;100.00;96376.88;5007119;28;20504;-84
2021/12/08 00:59:36;;;;;;;3.67;1.70;;;2.90;99.90;;;3.80;100.00;96372.31;5022074;28;20986;-84
2021/12/08 01:02:26;;;;;;;2.10;1.67;;;3.00;99.90;;;3.80;100.00;96382.66;5007156;28;20456;-83
2021/12/08 01:04:57;;;;;;;3.57;1.87;;;3.00;99.90;;;3.79;100.00;96383.63;5008493;28;20984;-84
2021/12/08 01:07:25;;;;;;;3.50;1.63;;;2.90;99.90;;;3.78;100.00;96361.38;5004888;28;20498;-84
2021/12/08 01:09:56;;;;;;;3.63;2.00;;;2.90;99.90;;;3.82;100.00;96365.16;5005346;28;20989;-84
2021/12/08 01:12:25;;;;;;;2.50;1.80;;;3.00;99.90;;;3.86;100.00;96371.56;5011118;28;20490;-83
2021/12/08 01:14:56;;;;;;;6.77;2.00;;;3.10;99.90;;;3.87;100.00;96375.75;5006389;28;20466;-84
2021/12/08 01:17:25;;;;;;;2.30;1.50;;;3.10;99.90;;;3.83;100.00;96369.34;5006782;28;20540;-84
2021/12/08 01:19:53;;;;;;;6.70;1.80;;;3.20;99.90;;;3.87;100.00;96360.25;5024630;28;20555;-84
2021/12/08 01:22:22;;;;;;;3.27;1.77;;;3.20;99.90;;;3.90;100.00;96354.69;5009987;28;20454;-84
2021/12/08 01:24:51;;;;;;;3.00;1.90;;;3.20;99.90;;;3.95;100.00;96362.69;5040896;28;20504;-84
2021/12/08 01:27:20;;;;;;;1.87;1.50;;;3.30;99.90;;;3.97;100.00;96356.34;5002707;28;21386;-85
2021/12/08 01:29:49;;;;;;;2.37;1.70;;;3.30;99.90;;;3.95;100.00;96358.31;5003903;28;20493;-84
2021/12/08 01:32:20;;;;;;;1.73;1.63;;;3.30;99.90;;;3.94;100.00;96355.91;5007295;28;20506;-84
2021/12/08 01:34:48;;;;;;;1.93;1.50;;;3.20;99.90;;;3.97;100.00;96358.94;5009120;28;21131;-84
2021/12/08 01:37:17;;;;;;;2.00;1.73;;;3.20;99.90;;;4.00;100.00;96355.16;5007351;28;20908;-84
2021/12/08 01:39:45;;;;;;;1.73;1.50;;;3.20;99.90;;;4.02;100.00;96345.44;5010435;28;20576;-84
2021/12/08 01:42:23;;;;;;;3.30;2.60;;;3.30;99.90;;;3.99;100.00;96345.81;5007857;28;20513;-84
2021/12/08 01:47:39;;;;;;;3.03;2.10;;;3.20;99.90;;;4.02;100.00;96325.56;4995074;28;20531;-84
2021/12/08 01:50:10;;;;;;;6.30;1.97;;;3.30;99.90;;;4.04;100.00;96317.59;5005595;28;20524;-84
2021/12/08 01:52:40;;;;;;;2.30;1.97;;;3.30;99.90;;;4.07;100.00;96319.81;5007754;28;20477;-84
2021/12/08 01:55:10;;;;;;;2.23;1.80;;;3.30;99.90;;;4.06;100.00;96326.00;5009010;28;20871;-84
2021/12/08 01:57:44;;;;;;;4.27;2.10;;;3.40;99.90;;;4.10;100.00;96319.44;5004250;28;20854;-83
2021/12/08 02:00:17;;;;;;;4.27;1.73;;;3.40;99.90;;;4.09;100.00;96317.84;5007342;28;20524;-83
2021/12/08 02:02:47;;;;;;;2.27;2.07;;;3.30;99.90;;;4.10;100.00;96319.44;5009194;28;20508;-84
2021/12/08 02:05:16;;;;;;;2.00;1.80;;;3.30;99.90;;;4.12;100.00;96327.81;5006047;28;20524;-84
2021/12/08 02:07:45;;;;;;;2.10;1.70;;;3.30;99.90;;;4.14;100.00;96332.78;5006840;28;20478;-84
2021/12/08 02:10:14;;;;;;;1.83;1.70;;;3.30;99.90;;;4.11;100.00;96323.63;5006587;28;21260;-84
2021/12/08 02:12:43;;;;;;;3.13;1.63;;;3.30;99.90;;;4.14;100.00;96330.19;5003964;28;20473;-84
2021/12/08 02:15:17;;;;;;;2.03;1.93;;;3.30;99.90;;;4.13;100.00;96329.38;5005235;28;20477;-84
2021/12/08 02:17:52;;;;;;;5.67;1.97;;;3.30;99.90;;;4.15;100.00;96332.59;5007413;28;20505;-84
2021/12/08 02:20:24;;;;;;;2.17;1.90;;;3.40;99.90;;;4.17;100.00;96334.97;5005996;28;20468;-84
2021/12/08 02:22:54;;;;;;;8.90;2.30;;;3.40;99.90;;;4.16;100.00;96329.03;5003771;28;20471;-84
2021/12/08 02:25:27;;;;;;;2.00;1.80;;;3.40;99.90;;;4.17;100.00;96334.97;5003275;28;20492;-84
2021/12/08 02:28:00;;;;;;;2.53;1.60;;;3.40;99.90;;;4.17;100.00;96335.78;4998210;28;20545;-85
2021/12/08 02:30:35;;;;;;;2.33;2.13;;;3.40;99.90;;;4.18;100.00;96339.19;5036447;28;20474;-84
2021/12/08 02:47:14;;;;;;;10.07;2.20;;;3.50;99.90;;;4.24;100.00;96336.63;5005909;28;20466;-84
2021/12/08 02:49:44;;;;;;;2.80;2.07;;;3.50;99.90;;;4.25;100.00;96333.06;5003209;28;20536;-84
2021/12/08 02:52:15;;;;;;;1.90;1.80;;;3.50;99.90;;;4.25;100.00;96343.41;5002926;28;20474;-84
2021/12/08 02:54:49;;;;;;;1.87;1.73;;;3.60;99.90;;;4.23;100.00;96336.84;5009303;28;20891;-84
2021/12/08 02:57:25;;;;;;;2.40;2.00;;;3.50;99.90;;;4.24;100.00;96335.81;5008482;28;20497;-84
2021/12/08 02:59:54;;;;;;;3.50;1.70;;;3.50;99.90;;;4.23;100.00;96337.63;5008610;28;20520;-84
2021/12/08 03:02:24;;;;;;;4.17;1.93;;;3.50;99.90;;;4.26;100.00;96337.25;5009411;28;20576;-84
2021/12/08 03:04:52;;;;;;;2.07;1.87;;;3.50;99.90;;;4.24;100.00;96330.66;5006822;28;20473;-84
2021/12/08 03:07:21;;;;;;;3.83;2.17;;;3.50;99.90;;;4.28;100.00;96337.06;5012707;28;20583;-84
2021/12/08 03:09:51;;;;;;;2.63;2.10;;;3.50;99.90;;;4.25;100.00;96332.25;5010412;28;20474;-84
2021/12/08 03:12:28;;;;;;;2.03;1.93;;;3.50;99.90;;;4.25;100.00;96340.81;5008098;28;20468;-84
2021/12/08 03:14:57;;;;;;;3.43;2.07;;;3.60;99.90;;;4.25;100.00;96338.22;5004920;28;20533;-84
2021/12/08 03:17:25;;;;;;;3.40;2.30;;;3.60;99.90;;;4.23;100.00;96335.06;5008071;28;20557;-84
2021/12/08 03:19:54;;;;;;;3.73;2.20;;;3.50;99.90;;;4.25;100.00;96327.09;4997414;28;20463;-84
2021/12/08 03:22:23;;;;;;;2.27;2.07;;;3.50;99.90;;;4.26;100.00;96334.66;5006812;28;20532;-84
2021/12/08 03:24:54;;;;;;;5.00;2.00;;;3.60;99.90;;;4.25;100.00;96320.13;5005305;28;20531;-84
2021/12/08 03:27:31;;;;;;;4.00;2.50;;;3.50;99.90;;;4.27;100.00;96318.13;5005227;28;20526;-84
2021/12/08 03:30:12;;;;;;;4.10;2.30;;;3.50;99.90;;;4.26;100.00;96324.31;5002429;28;20469;-85
2021/12/08 03:32:40;;;;;;;6.57;2.60;;;3.50;99.90;;;4.27;100.00;96332.88;5009558;28;20486;-84
2021/12/08 03:35:13;;;;;;;3.83;2.50;;;3.40;99.90;;;4.26;100.00;96324.31;5008059;28;20900;-84
2021/12/08 03:37:45;;;;;;;4.67;2.80;;;3.50;99.90;;;4.28;100.00;96327.50;5009857;28;21009;-84
2021/12/08 03:40:18;;;;;;;3.27;2.93;;;3.50;99.90;;;4.27;100.00;96320.72;5011566;28;20455;-84
2021/12/08 03:42:50;;;;;;;2.83;2.03;;;3.40;99.90;;;4.27;100.00;96319.94;5004283;28;20494;-84
2021/12/08 03:45:23;;;;;;;3.03;2.23;;;3.50;99.90;;;4.28;100.00;96318.94;5011523;28;20446;-83
2021/12/08 03:48:00;;;;;;;7.17;2.70;;;3.50;99.90;;;4.27;100.00;96312.97;5011372;28;20515;-84
2021/12/08 03:50:32;;;;;;;5.73;2.20;;;3.50;99.90;;;4.28;100.00;96317.16;5008229;28;20470;-82
2021/12/08 03:53:01;;;;;;;2.60;2.20;;;3.50;99.90;;;4.27;100.00;96315.56;5004493;28;20552;-81
2021/12/08 03:55:31;;;;;;;2.70;2.03;;;3.50;99.90;;;4.27;100.00;96319.94;5009687;28;20903;-82
2021/12/08 03:57:59;;;;;;;3.00;2.20;;;3.50;99.90;;;4.27;100.00;96315.56;5007343;28;20553;-82
2021/12/08 04:00:30;;;;;;;6.60;3.63;;;3.50;99.90;;;4.27;100.00;96310.38;5004368;28;20467;-82
2021/12/08 04:03:04;;;;;;;3.60;3.00;;;3.50;99.90;;;4.28;100.00;96311.19;5008436;28;20470;-82
2021/12/08 04:05:43;;;;;;;5.00;2.90;;;3.50;99.90;;;4.25;100.00;96314.94;5004278;28;20464;-82
2021/12/08 04:08:18;;;;;;;2.90;2.67;;;3.60;99.90;;;4.27;100.00;96310.38;5010538;28;20531;-82
2021/12/08 04:10:51;;;;;;;5.70;3.10;;;3.50;99.90;;;4.28;100.00;96322.34;5012014;28;20492;-82
2021/12/08 04:13:25;;;;;;;6.50;4.77;;;3.50;99.90;;;4.29;100.00;96330.91;5004064;28;20466;-82
2021/12/08 04:15:54;;;;;;;7.20;4.17;;;3.60;99.90;;;4.27;100.00;96323.31;5010871;28;20493;-85
2021/12/08 04:18:24;;;;;;;7.60;4.50;;;3.60;99.90;;;4.29;100.00;96333.47;5023640;28;20618;-82
2021/12/08 04:21:00;;;;;;;4.63;3.30;;;3.60;99.90;;;4.30;100.00;96341.06;5007701;28;20521;-81
2021/12/08 04:23:36;;;;;;;4.07;3.33;;;3.50;99.90;;;4.31;100.00;96347.00;5007106;28;20544;-82
2021/12/08 04:26:14;;;;;;;3.67;3.10;;;3.50;99.90;;;4.31;100.00;96347.81;4997210;28;20473;-81
2021/12/08 04:28:43;;;;;;;5.30;3.17;;;3.60;99.90;;;4.28;100.00;96342.22;5001398;28;20481;-82
2021/12/08 04:31:21;;;;;;;8.00;3.97;;;3.60;99.90;;;4.29;100.00;96349.81;5004542;28;20473;-81
2021/12/08 04:33:55;;;;;;;3.60;3.13;;;3.60;99.90;;;4.29;100.00;96352.41;5005897;28;20565;-82
2021/12/08 04:36:26;;;;;;;4.33;3.20;;;3.70;99.90;;;4.31;100.00;96357.38;4999277;28;20472;-82
2021/12/08 04:38:58;;;;;;;67.57;25.93;;;3.70;99.90;;;4.29;100.00;96364.53;5003640;28;20505;-81
2021/12/08 04:41:35;;;;;;;4.07;3.13;;;3.70;99.90;;;4.31;100.00;96357.38;5004767;28;21080;-81
2021/12/08 04:44:17;;;;;;;6.27;3.67;;;3.70;99.90;;;4.33;100.00;96351.03;5007910;28;21088;-81
2021/12/08 04:47:05;;;;;;;4.43;3.33;;;3.60;99.90;;;4.33;100.00;96345.84;5009303;28;20855;-80
2021/12/08 04:50:21;;;;;;;5.00;3.10;;;3.60;99.90;;;4.33;100.00;96345.84;5008986;28;21007;-80
2021/12/08 04:53:06;;;;;;;3.93;2.97;;;3.60;99.90;;;4.33;100.00;96356.22;5009008;28;20547;-80
2021/12/08 05:01:26;;;;;;;5.60;3.00;;;3.70;99.90;;;4.31;100.00;96358.16;5000808;28;20462;-79
2021/12/08 05:04:13;;;;;;;6.13;4.27;;;3.60;99.90;;;4.31;100.00;96358.16;5006387;28;20761;-80
2021/12/08 05:06:51;;;;;;;5.47;3.80;;;3.70;99.90;;;4.28;100.00;96361.13;5007450;28;20547;-78
2021/12/08 05:09:28;;;;;;;8.07;4.23;;;3.60;99.90;;;4.26;100.00;96365.72;5010507;28;20489;-79
2021/12/08 05:12:02;;;;;;;7.03;3.80;;;3.60;99.90;;;4.26;100.00;96364.91;5004437;28;20497;-79
2021/12/08 05:14:37;;;;;;;10.37;3.30;;;3.60;99.90;;;4.24;100.00;96365.09;5007523;28;20483;-78
2021/12/08 05:17:11;;;;;;;14.63;3.63;;;3.60;99.90;;;4.23;100.00;96366.09;5010116;28;20492;-79
2021/12/08 05:19:44;;;;;;;5.90;2.80;;;3.60;99.90;;;4.21;100.00;96368.06;5009590;28;21002;-78
2021/12/08 05:22:20;;;;;;;4.20;3.33;;;3.50;99.90;;;4.17;100.00;96366.81;5011525;28;20446;-78
2021/12/08 05:24:54;;;;;;;4.10;2.73;;;3.40;99.90;;;4.16;100.00;96374.78;5009335;28;20477;-78
2021/12/08 05:27:29;;;;;;;3.37;3.07;;;3.30;99.90;;;4.18;100.00;96373.59;5011509;28;20450;-78
2021/12/08 05:30:06;;;;;;;5.83;3.00;;;3.50;99.90;;;4.18;100.00;96377.97;5008470;28;20478;-77
2021/12/08 05:32:35;;;;;;;3.00;2.60;;;3.50;99.90;;;4.15;100.00;96381.75;5011308;28;20861;-78
2021/12/08 05:35:06;;;;;;;4.17;2.80;;;3.30;99.90;;;4.14;100.00;96390.47;5011494;28;20473;-78
2021/12/08 05:37:34;;;;;;;3.40;2.87;;;3.30;99.90;;;4.13;100.00;96381.13;5011065;28;20505;-79
2021/12/08 05:40:09;;;;;;;5.73;3.07;;;3.30;99.90;;;4.12;100.00;96374.38;5009230;28;20525;-78
2021/12/08 05:42:39;;;;;;;4.13;2.60;;;3.30;99.90;;;4.11;100.00;96380.50;5011122;28;20473;-79
2021/12/08 05:45:14;;;;;;;6.57;2.37;;;3.30;99.90;;;4.08;100.00;96386.06;5011148;28;20458;-79
2021/12/08 05:47:46;;;;;;;5.03;3.20;;;3.20;99.90;;;4.07;100.00;96367.16;5013447;28;20473;-78
2021/12/08 05:50:29;;;;;;;4.03;2.87;;;3.40;99.90;;;4.10;100.00;96368.56;5011473;28;20477;-78
2021/12/08 05:52:57;;;;;;;3.53;3.20;;;3.30;99.90;;;4.10;100.00;96368.56;5010541;28;20453;-79
2021/12/08 05:55:26;;;;;;;2.80;2.60;;;3.30;99.90;;;4.06;100.00;96364.78;5009641;28;20873;-78
2021/12/08 05:57:55;;;;;;;4.30;3.30;;;3.30;99.90;;;4.07;100.00;96364.56;5011171;28;20450;-78
2021/12/08 06:00:34;;;;;;;9.83;4.03;;;3.30;99.90;;;4.06;100.00;96344.09;5008705;28;20499;-78
2021/12/08 06:03:08;;;;;;;6.20;3.67;;;3.30;99.90;;;4.07;100.00;96362.00;5011228;28;20449;-78
2021/12/08 06:05:37;;;;;;;6.23;3.77;;;3.30;99.90;;;4.04;100.00;96354.59;5010826;28;20462;-78
2021/12/08 06:08:06;;;;;;;5.67;3.00;;;3.30;99.90;;;4.02;100.00;96345.44;5011121;28;20507;-78
2021/12/08 06:10:38;;;;;;;5.97;4.10;;;3.20;99.90;;;4.00;100.00;96361.13;5010664;28;20457;-78
2021/12/08 06:13:10;;;;;;;3.87;3.00;;;3.20;99.90;;;3.99;100.00;96367.28;5000169;28;20462;-78
2021/12/08 06:15:45;;;;;;;5.70;3.30;;;3.20;99.90;;;3.96;100.00;96362.50;5010764;28;20487;-79
2021/12/08 06:18:15;;;;;;;6.80;3.43;;;3.20;99.90;;;3.95;100.00;96358.31;5010852;28;20483;-78
2021/12/08 06:20:44;;;;;;;6.63;4.13;;;3.30;99.90;;;3.92;100.00;96357.91;5010649;28;21062;-78
2021/12/08 06:23:12;;;;;;;6.33;3.97;;;3.20;99.90;;;3.89;100.00;96366.81;5010847;28;20451;-78
2021/12/08 06:25:42;;;;;;;7.03;3.50;;;3.20;99.90;;;3.89;100.00;96363.41;5010667;28;20817;-78
2021/12/08 06:28:11;;;;;;;6.60;3.80;;;3.10;99.90;;;3.84;100.00;96363.19;5010647;28;20476;-78
2021/12/08 06:30:45;;;;;;;10.20;4.00;;;3.10;99.90;;;3.82;100.00;96360.78;5014336;28;20458;-79
2021/12/08 06:33:16;;;;;;;6.00;2.70;;;3.00;99.90;;;3.78;100.00;96361.38;5011920;28;20460;-78
2021/12/08 06:35:49;;;;;;;4.07;3.30;;;2.90;99.90;;;3.73;100.00;96363.69;5014573;28;20498;-79
2021/12/08 06:38:19;;;;;;;6.40;4.13;;;2.80;99.90;;;3.71;100.00;96370.84;5014716;28;20451;-78
2021/12/08 06:40:58;;;;;;;3.27;2.40;;;2.80;99.90;;;3.69;100.00;96371.03;5014507;28;20554;-78
2021/12/08 06:43:32;;;;;;;5.33;3.30;;;2.80;99.90;;;3.68;100.00;96368.63;5014316;28;21048;-78
2021/12/08 06:46:03;;;;;;;11.83;3.53;;;2.90;99.90;;;3.67;100.00;96370.41;5014676;28;20447;-79
2021/12/08 06:48:38;;;;;;;4.33;3.10;;;2.80;99.90;;;3.64;100.00;96373.38;5012239;28;20475;-78
2021/12/08 06:51:13;;;;;;;7.30;3.47;;;2.80;99.90;;;3.66;100.00;96373.19;5013997;28;20446;-78
2021/12/08 06:53:46;;;;;;;4.20;2.97;;;2.80;99.90;;;3.67;100.00;96375.59;5011074;28;20452;-78
2021/12/08 06:56:20;;;;;;;5.63;3.33;;;2.80;99.90;;;3.61;100.00;96389.22;5014246;28;20947;-79
2021/12/08 06:58:57;;;;;;;4.27;3.40;;;2.70;99.90;;;3.54;100.00;96396.91;5014180;28;20452;-78
2021/12/08 07:01:41;;;;;;;9.53;4.07;;;2.60;99.90;;;3.60;100.00;96389.44;5012119;28;21016;-78
2021/12/08 07:04:29;;;;;;;8.57;3.17;;;2.90;99.90;;;3.61;100.00;96391.03;5014107;28;20462;-78
2021/12/08 07:07:09;;;;;;;7.60;3.37;;;2.80;99.90;;;3.58;100.00;96396.53;5014364;28;20452;-78
2021/12/08 07:09:49;;;;;;;7.47;3.60;;;2.70;99.90;;;3.55;100.00;96393.34;5013327;28;20455;-79
2021/12/08 07:12:25;;;;;;;5.23;2.90;;;2.70;99.90;;;3.57;100.00;96392.38;5006109;28;20578;-78
2021/12/08 07:14:59;;;;;;;8.93;3.90;;;2.70;99.90;;;3.57;100.00;96397.56;5014099;28;20509;-78
2021/12/08 07:17:36;;;;;;;3.87;3.47;;;2.70;99.90;;;3.57;100.00;96387.22;5013924;28;20447;-78
2021/12/08 07:20:18;;;;;;;5.80;3.33;;;2.70;99.90;;;3.61;100.00;96396.19;5013474;28;20490;-78
2021/12/08 07:22:52;;;;;;;3.20;2.70;;;2.80;99.90;;;3.66;100.00;96399.00;5013885;28;20962;-78
2021/12/08 07:25:25;;;;;;;9.70;4.40;;;2.90;99.90;;;3.62;100.00;96406.34;5013801;28;20453;-78
2021/12/08 07:27:55;;;;;;;5.77;3.73;;;2.90;99.90;;;3.62;100.00;96421.03;5004528;28;20473;-78
2021/12/08 07:30:33;;;;;;;5.90;3.47;;;2.80;99.90;;;3.65;100.00;96420.66;5013529;28;20447;-77
2021/12/08 07:33:03;;;;;;;4.90;3.50;;;2.90;99.90;;;3.68;100.00;96412.56;5010844;28;20506;-78
2021/12/08 07:35:37;;;;;;;15.37;4.10;;;2.90;99.90;;;3.70;100.00;96410.59;5013225;28;20822;-78
2021/12/08 07:38:08;;;;;;;6.70;3.70;;;2.90;99.90;;;3.72;100.00;96400.84;5013533;28;20536;-78
2021/12/08 07:40:44;;;;;;;5.50;3.53;;;2.90;99.90;;;3.75;100.00;96392.75;5012072;28;20503;-78
2021/12/08 07:43:20;;;;;;;5.37;3.70;;;3.00;99.90;;;3.77;100.00;96393.34;5013102;28;20476;-78
2021/12/08 07:46:02;;;;;;;10.83;5.53;;;3.00;99.90;;;3.80;100.00;96395.56;5013310;28;20459;-78
2021/12/08 07:48:42;;;;;;;6.30;4.20;;;3.00;99.90;;;3.81;100.00;96397.97;5013145;28;20466;-78
2021/12/08 07:51:16;;;;;;;9.63;4.80;;;3.00;99.90;;;3.79;100.00;96401.72;5012973;28;20515;-78
2021/12/08 07:53:45;;;;;;;7.93;4.50;;;3.00;99.90;;;3.81;100.00;96389.44;5003326;28;20519;-77
2021/12/08 07:56:18;;;;;;;6.37;4.60;;;3.00;99.90;;;3.83;100.00;96392.59;5013232;28;20450;-77
2021/12/08 07:58:53;;;;;;;6.00;4.30;;;3.10;99.90;;;3.82;100.00;96398.75;5013202;28;20453;-77
2021/12/08 08:01:26;;;;;;;5.50;3.80;;;3.00;99.90;;;3.85;100.00;96403.59;5012560;28;20505;-77
2021/12/08 08:03:57;;;;;;;16.63;4.10;;;3.10;99.90;;;3.85;100.00;96401.00;5012654;28;21211;-77
2021/12/08 08:06:30;;;;;;;4.60;3.60;;;3.20;99.90;;;3.88;100.00;96400.63;5012466;28;20497;-77
2021/12/08 08:09:00;;;;;;;5.03;3.90;;;3.20;99.90;;;3.91;100.00;96408.00;5012579;28;20446;-77
2021/12/08 08:11:33;;;;;;;5.63;3.87;;;3.20;99.90;;;3.93;100.00;96403.44;5010522;28;20472;-77
2021/12/08 08:14:03;;;;;;;5.73;3.63;;;3.20;99.90;;;3.97;100.00;96407.25;5008824;28;20943;-78
2021/12/08 08:16:39;;;;;;;10.13;5.60;;;3.30;99.90;;;3.97;100.00;96405.47;5012880;28;20443;-78
2021/12/08 08:19:15;;;;;;;8.43;5.83;;;3.30;99.90;;;3.99;100.00;96405.28;5012361;28;20549;-77
2021/12/08 08:21:49;;;;;;;9.33;5.20;;;3.30;99.90;;;4.02;100.00;96415.25;5012592;28;20829;-77
2021/12/08 08:24:19;;;;;;;13.50;6.77;;;3.30;99.90;;;4.02;100.00;96423.03;5009702;28;20453;-77
2021/12/08 08:26:52;;;;;;;14.90;5.30;;;3.30;99.90;;;4.04;100.00;96426.22;5012520;28;20580;-77
2021/12/08 08:29:21;;;;;;;13.73;5.77;;;3.20;99.90;;;4.03;100.00;96429.78;5012695;28;20890;-77
2021/12/08 08:31:59;;;;;;;25.23;5.30;;;3.30;99.90;;;4.03;100.00;96434.94;5012150;28;20783;-77
2021/12/08 08:34:39;;;;;;;7.30;5.20;;;3.40;99.90;;;4.04;100.00;96445.13;5012667;28;20517;-77
2021/12/08 08:37:17;;;;;;;9.70;6.17;;;3.30;99.90;;;4.07;100.00;96451.69;5012002;28;20457;-77
2021/12/08 08:39:51;;;;;;;10.13;4.93;;;3.40;99.90;;;4.11;100.00;96460.69;5012385;28;20504;-77
2021/12/08 08:42:24;;;;;;;9.60;5.87;;;3.40;99.90;;;4.13;100.00;96453.53;5002363;28;20519;-78
2021/12/08 08:44:59;;;;;;;10.10;5.73;;;3.40;99.90;;;4.13;100.00;96443.19;5011750;28;20460;-77
2021/12/08 08:47:33;;;;;;;11.07;5.80;;;3.40;99.90;;;4.13;100.00;96448.34;5012431;28;20461;-77
2021/12/08 08:50:06;;;;;;;12.60;6.77;;;3.40;99.90;;;4.18;100.00;96446.03;5011933;28;20446;-77
2021/12/08 08:52:39;;;;;;;14.00;6.23;;;3.40;99.90;;;4.20;100.00;96443.25;5011781;28;20465;-77
2021/12/08 08:55:24;;;;;;;18.13;6.50;;;3.50;99.90;;;4.22;100.00;96441.28;5012185;28;20949;-78
2021/12/08 08:57:54;;;;;;;12.53;6.50;;;3.50;99.90;;;4.23;100.00;96438.53;5011710;28;20943;-77
2021/12/08 09:00:31;;;;;;;18.17;7.63;;;3.50;99.90;;;4.26;100.00;96432.16;5011854;28;20927;-77
2021/12/08 09:03:05;;;;;;;11.17;5.97;;;3.60;99.90;;;4.28;100.00;96436.16;5011702;28;20505;-78
2021/12/08 09:05:41;;;;;;;11.73;6.57;;;3.50;99.90;;;4.30;100.00;96430.81;5011526;28;21083;-78
2021/12/08 09:08:16;;;;;;;15.47;6.87;;;3.50;99.90;;;4.31;100.00;96430.59;5011726;28;20473;-78
2021/12/08 09:10:53;;;;;;;12.53;7.10;;;3.60;99.90;;;4.35;100.00;96437.00;5011660;28;20463;-77
2021/12/08 09:13:29;;;;;;;16.57;6.53;;;3.70;99.90;;;4.38;100.00;96457.31;5008747;28;20504;-78
2021/12/08 09:16:02;;;;;;;11.53;5.80;;;3.60;99.90;;;4.40;100.00;96464.91;5012043;28;20454;-77
2021/12/08 09:18:44;;;;;;;14.27;6.70;;;3.60;99.90;;;4.42;100.00;96478.44;5011718;28;20458;-78
2021/12/08 09:21:20;;;;;;;10.80;6.10;;;3.70;99.90;;;4.41;100.00;96477.66;5011724;28;20493;-78
2021/12/08 09:23:57;;;;;;;12.00;6.70;;;3.60;99.90;;;4.42;100.00;96481.84;5008964;28;20454;-77
2021/12/08 09:26:30;;;;;;;8.47;5.27;;;3.70;99.90;;;4.45;100.00;96468.53;5011616;28;20589;-77
2021/12/08 09:29:07;;;;;;;14.13;6.47;;;3.70;99.90;;;4.47;100.00;96470.94;5011194;28;20475;-78
2021/12/08 09:31:40;;;;;;;8.10;4.50;;;3.80;99.90;;;4.50;100.00;96473.94;5011474;28;20451;-77
2021/12/08 09:34:17;;;;;;;10.17;6.00;;;3.80;99.90;;;4.52;100.00;96490.09;5011482;28;21006;-77
2021/12/08 09:36:53;;;;;;;12.60;5.70;;;3.70;99.90;;;4.55;100.00;96505.22;5011141;28;20868;-78
2021/12/08 09:39:27;;;;;;;11.33;5.20;;;3.80;99.90;;;4.58;100.00;96515.22;5009684;28;20461;-77
2021/12/08 09:42:03;;;;;;;11.53;5.30;;;3.80;99.90;;;4.63;100.00;96511.25;5010396;28;20576;-77
2021/12/08 09:44:37;;;;;;;10.20;5.83;;;3.90;99.90;;;4.65;100.00;96509.31;5010991;28;20482;-77
2021/12/08 09:47:06;;;;;;;14.23;7.60;;;3.90;99.90;;;4.67;100.00;96513.28;5011250;28;20446;-78
2021/12/08 09:49:35;;;;;;;8.87;6.47;;;4.00;99.90;;;4.69;100.00;96510.50;5011147;28;20772;-77
2021/12/08 09:52:08;;;;;;;11.17;4.63;;;4.00;99.90;;;4.74;100.00;96505.56;5010021;28;20454;-78
2021/12/08 09:54:38;;;;;;;11.00;4.60;;;4.20;99.90;;;4.79;100.00;96504.00;5010866;28;20505;-78
2021/12/08 09:57:13;;;;;;;7.07;4.43;;;4.20;99.90;;;4.83;100.00;96499.25;5011349;28;20875;-78
2021/12/08 09:59:46;;;;;;;12.50;4.23;;;4.30;99.90;;;4.88;100.00;96499.50;5011047;28;20510;-78
2021/12/08 10:02:26;;;;;;;7.03;3.20;;;4.30;99.90;;;4.91;100.00;96507.69;5010756;28;20493;-77
2021/12/08 10:04:58;;;;;;;9.07;3.73;;;4.30;99.90;;;4.95;100.00;96503.72;5006779;28;20978;-77
2021/12/08 10:07:29;;;;;;;8.73;3.23;;;4.30;99.90;;;5.01;100.00;96499.56;5011057;28;20501;-78
2021/12/08 10:09:58;;;;;;;10.77;2.80;;;4.40;99.90;;;5.04;100.00;96494.00;5009842;28;20446;-78
2021/12/08 10:12:27;;;;;;;15.83;3.37;;;4.40;99.90;;;5.07;100.00;96483.25;5004305;28;20455;-78
2021/12/08 10:14:57;;;;;;;9.67;3.20;;;4.40;99.90;;;5.11;100.00;96474.13;5011014;28;20463;-77
2021/12/08 10:17:26;;;;;;;9.43;3.33;;;4.50;99.90;;;5.16;100.00;96464.00;5007715;28;20439;-78
2021/12/08 10:20:15;;;;;;;4.37;2.33;;;4.60;99.90;;;5.19;100.00;96458.44;5010800;28;20466;-77
2021/12/08 10:22:49;;;;;;;6.00;2.63;;;4.60;99.90;;;5.25;100.00;96467.22;5005174;28;20495;-78
2021/12/08 10:25:23;;;;;;;6.70;2.00;;;4.70;99.90;;;5.28;100.00;96457.25;5010761;28;20459;-78
2021/12/08 10:28:22;;;;;;;8.13;2.30;;;4.80;99.90;;;5.32;100.00;96470.63;5010658;28;20526;-78
2021/12/08 10:30:54;;;;;;;7.80;2.13;;;4.80;99.90;;;5.33;100.00;96461.88;4987893;28;20454;-78
2021/12/08 10:33:48;;;;;;;7.63;2.17;;;4.80;99.90;;;5.36;100.00;96470.06;5010789;28;20450;-78
2021/12/08 10:39:12;;;;;;;8.33;2.50;;;4.80;99.90;;;5.41;100.00;96488.44;5000284;28;20533;-78
2021/12/08 10:42:08;;;;;;;4.33;2.07;;;4.70;99.90;;;5.46;100.00;96485.25;5010420;28;20548;-79
2021/12/08 10:44:53;;;;;;;7.90;1.90;;;4.80;99.90;;;5.48;100.00;96486.66;5010321;28;20447;-78
2021/12/08 10:47:30;;;;;;;13.53;2.20;;;4.80;99.90;;;5.50;100.00;96484.69;5003547;28;20446;-78
2021/12/08 10:55:42;;;;;;;6.00;2.10;;;4.90;99.90;;;5.57;100.00;96495.88;5010566;28;20497;-78
2021/12/08 10:58:25;;;;;;;11.70;2.20;;;4.90;99.90;;;5.58;100.00;96494.88;5010112;28;20439;-78
2021/12/08 11:00:56;;;;;;;11.07;2.03;;;4.90;99.90;;;5.59;100.00;96487.88;5010426;28;20850;-78
2021/12/08 11:03:29;;;;;;;6.93;2.63;;;5.00;99.90;;;5.62;100.00;96489.31;5002019;28;20498;-78
2021/12/08 11:06:01;;;;;;;14.97;2.23;;;5.10;99.90;;;5.63;100.00;96477.94;5010108;28;20936;-78
2021/12/08 11:08:33;;;;;;;10.20;2.20;;;5.10;99.90;;;5.66;100.00;96487.94;5010727;28;20857;-77
2021/12/08 11:11:09;;;;;;;10.83;1.73;;;5.00;99.90;;;5.68;100.00;96491.91;5009811;28;20466;-78
2021/12/08 11:13:43;;;;;;;17.87;2.10;;;5.00;99.90;;;5.70;100.00;96483.94;5003835;28;20524;-78
2021/12/08 11:16:16;;;;;;;6.83;2.07;;;5.10;99.90;;;5.71;100.00;96475.16;5013444;28;20450;-78
2021/12/08 11:18:49;;;;;;;9.00;2.33;;;5.00;99.90;;;5.74;100.00;96470.38;5013376;28;20517;-78
2021/12/08 11:21:29;;;;;;;5.20;2.00;;;5.10;99.90;;;5.75;100.00;96477.19;5013643;28;20520;-78
2021/12/08 11:24:19;;;;;;;7.60;2.17;;;5.10;99.90;;;5.78;100.00;96481.97;5013616;28;20469;-78
2021/12/08 11:26:54;;;;;;;10.57;1.97;;;5.10;99.90;;;5.80;100.00;96490.34;5013865;28;20534;-78